Rechercher aéroport 
image banner adimage banner adimage banner ad
image banner ad

36CL - Tri-City Hospital

Situé à Oceanside, United States

ICAO - 36CL, IATA -

Données fournies par Airmate  

Information générale

Coordonnées: N33°11'7" W117°17'28"
Élévation : 260 feet MSL.
Variation magnétique : 13° East
Voir autres Aéroports à California

Données opérationnelles

Special qualification required
Heure actuelle UTC:
Heure actuelle locale:
Météo à : KCRQ - Mc Clellan-Palomar ( 6 km )
METAR: KCRQ 212353Z VRB04KT 10SM CLR 24/18 A3001 RMK AO2 SLP161 T02440178 10289 20233 56002
TAF: KCRQ 212320Z 2200/2224 26007KT P6SM SKC FM220200 VRB04KT P6SM SKC FM221900 26007KT P6SM SKC
Voir NOTAMs / SUP AIP / TFR affectant cet aéroport [VIEW]
Fréquences de communication: [VIEW]

Pistes:

Coordonnées de l'aéroport

Adresse: Oceanside United States

Vue satellite de 36CL